createdAt,value
2023-03-06T00:02:52.151Z,2.33
2023-03-06T00:06:17.799Z,2.20
2023-03-06T00:09:41.249Z,1.85
2023-03-06T00:13:08.117Z,2.05
2023-03-06T00:16:32.129Z,2.38
2023-03-06T00:19:57.622Z,1.50
2023-03-06T00:23:23.648Z,1.52
2023-03-06T00:26:46.815Z,1.70
2023-03-06T00:30:13.563Z,1.63
2023-03-06T00:33:37.594Z,1.98
2023-03-06T00:37:00.816Z,1.00
2023-03-06T00:40:25.927Z,0.90
2023-03-06T00:43:48.781Z,1.50
2023-03-06T00:47:13.074Z,1.08
2023-03-06T00:50:37.402Z,1.30
2023-03-06T00:54:00.837Z,0.98
2023-03-06T00:57:25.123Z,0.73
2023-03-06T01:00:49.224Z,0.60
2023-03-06T01:04:12.684Z,0.57
2023-03-06T01:07:37.791Z,1.20
2023-03-06T01:11:01.978Z,0.70
2023-03-06T01:14:27.191Z,0.90
2023-03-06T01:17:54.143Z,0.75
2023-03-06T01:21:16.896Z,0.95
2023-03-06T01:24:41.264Z,1.55
2023-03-06T01:28:04.876Z,2.60
2023-03-06T01:31:30.735Z,3.40
2023-03-06T01:34:57.267Z,5.35
2023-03-06T01:38:22.144Z,2.35
2023-03-06T01:41:46.129Z,1.73
2023-03-06T01:45:49.437Z,1.20
2023-03-06T01:49:23.872Z,1.90
2023-03-06T01:52:51.744Z,1.70
2023-03-06T01:56:17.878Z,1.83
2023-03-06T01:59:45.853Z,1.60
2023-03-06T02:03:13.324Z,1.27
2023-03-06T02:06:43.250Z,0.98
2023-03-06T02:10:09.172Z,0.55
2023-03-06T02:13:32.988Z,0.80
2023-03-06T02:16:57.897Z,1.00
2023-03-06T02:20:28.807Z,0.70
2023-03-06T02:24:04.977Z,0.90
2023-03-06T02:27:30.805Z,0.60
2023-03-06T02:30:56.994Z,0.75
2023-03-06T02:34:51.058Z,0.90
2023-03-06T02:38:19.826Z,1.27
2023-03-06T02:41:43.091Z,1.27
2023-03-06T02:45:12.074Z,1.05
2023-03-06T02:48:35.971Z,1.50
2023-03-06T02:52:00.154Z,2.30
2023-03-06T02:55:24.038Z,1.58
2023-03-06T02:58:47.103Z,0.80
2023-03-06T03:02:13.027Z,0.70
2023-03-06T03:05:38.764Z,0.95
2023-03-06T03:09:02.223Z,0.93
2023-03-06T03:12:25.804Z,1.10
2023-03-06T03:16:01.081Z,0.70
2023-03-06T03:19:26.092Z,0.68
2023-03-06T03:22:55.478Z,1.05
2023-03-06T03:26:21.910Z,1.13
2023-03-06T03:29:44.869Z,0.60
2023-03-06T03:33:08.649Z,0.55
2023-03-06T03:36:33.969Z,0.80
2023-03-06T03:39:57.117Z,2.05
2023-03-06T03:43:21.122Z,4.82
2023-03-06T03:46:45.245Z,2.65
2023-03-06T03:50:10.725Z,2.88
2023-03-06T03:53:36.244Z,10.52
2023-03-06T03:56:59.912Z,7.57
2023-03-06T04:00:24.126Z,6.53
2023-03-06T04:03:47.779Z,3.60
2023-03-06T04:07:11.968Z,2.55
2023-03-06T04:10:37.694Z,1.50
2023-03-06T04:14:01.378Z,1.02
2023-03-06T04:17:25.356Z,0.50
2023-03-06T04:20:50.794Z,1.00
2023-03-06T04:24:15.070Z,5.75
2023-03-06T04:27:41.200Z,4.05
2023-03-06T04:31:04.544Z,2.25
2023-03-06T04:34:28.763Z,1.55
2023-03-06T04:37:52.178Z,12.35
2023-03-06T04:41:15.165Z,6.53
2023-03-06T04:44:41.021Z,8.25
2023-03-06T04:48:06.068Z,9.85
2023-03-06T04:51:30.169Z,9.75
2023-03-06T04:54:54.430Z,6.35
2023-03-06T04:58:17.976Z,7.93
2023-03-06T05:01:43.093Z,8.88
2023-03-06T05:05:07.885Z,8.70
2023-03-06T05:08:31.061Z,12.52
2023-03-06T05:11:54.114Z,17.70
2023-03-06T05:15:19.325Z,14.60
2023-03-06T05:18:44.946Z,9.32
2023-03-06T05:22:08.727Z,9.00
2023-03-06T05:25:32.717Z,9.05
2023-03-06T05:28:56.810Z,13.82
2023-03-06T05:32:20.833Z,9.15
2023-03-06T05:35:51.036Z,6.65
2023-03-06T05:39:15.496Z,4.05
2023-03-06T05:42:39.497Z,3.80
2023-03-06T05:46:05.150Z,4.43
2023-03-06T05:49:29.818Z,5.22
2023-03-06T05:52:56.187Z,8.68
2023-03-06T05:56:20.448Z,9.45
2023-03-06T05:59:46.337Z,2.88
2023-03-06T06:03:10.707Z,1.42
2023-03-06T06:06:35.158Z,11.20
2023-03-06T06:10:03.537Z,4.55
2023-03-06T06:13:28.964Z,3.08
2023-03-06T06:16:53.355Z,2.97
2023-03-06T06:20:18.512Z,2.83
2023-03-06T06:23:43.084Z,4.30
2023-03-06T06:27:09.308Z,5.45
2023-03-06T06:30:34.315Z,4.18
2023-03-06T06:33:58.090Z,2.55
2023-03-06T06:37:22.210Z,2.17
2023-03-06T06:41:04.244Z,1.52
2023-03-06T06:44:32.551Z,1.48
2023-03-06T06:47:55.657Z,1.75
2023-03-06T06:51:19.106Z,5.32
2023-03-06T06:54:42.273Z,3.15
2023-03-06T06:58:06.271Z,1.77
2023-03-06T07:01:32.109Z,1.60
2023-03-06T07:05:04.064Z,1.90
2023-03-06T07:08:27.113Z,4.35
2023-03-06T07:11:51.296Z,2.08
2023-03-06T07:15:16.292Z,2.92
2023-03-06T07:18:41.938Z,2.80
2023-03-06T07:22:06.022Z,5.38
2023-03-06T07:25:30.312Z,28.65
2023-03-06T07:28:55.278Z,8.93
2023-03-06T07:32:18.936Z,10.35
2023-03-06T07:35:44.032Z,4.07
2023-03-06T07:39:07.791Z,2.38
2023-03-06T07:42:31.154Z,3.20
2023-03-06T07:45:59.441Z,3.60
2023-03-06T07:49:22.917Z,2.00
2023-03-06T07:52:48.327Z,1.75
2023-03-06T07:56:13.333Z,1.63
2023-03-06T07:59:37.437Z,1.50
2023-03-06T08:03:01.293Z,1.67
2023-03-06T08:06:27.055Z,1.45
2023-03-06T08:09:53.066Z,1.83
2023-03-06T08:13:17.146Z,8.55
2023-03-06T08:16:41.227Z,5.50
2023-03-06T08:20:05.323Z,2.97
2023-03-06T08:23:28.363Z,3.38
2023-03-06T08:26:54.312Z,2.00
2023-03-06T08:30:18.498Z,2.15
2023-03-06T08:33:44.019Z,1.83
2023-03-06T08:37:07.103Z,2.22
2023-03-06T08:40:30.961Z,3.50
2023-03-06T08:43:56.173Z,3.22
2023-03-06T08:47:20.259Z,1.92
2023-03-06T08:50:44.859Z,2.60
2023-03-06T08:54:08.344Z,3.42
2023-03-06T08:57:32.388Z,4.13
2023-03-06T09:00:57.377Z,1.98
2023-03-06T09:04:21.625Z,1.50
2023-03-06T09:07:45.401Z,1.45
2023-03-06T09:11:11.395Z,2.15
2023-03-06T09:14:35.303Z,2.30
2023-03-06T09:18:00.226Z,1.75
2023-03-06T09:21:25.643Z,1.83
2023-03-06T09:24:49.409Z,1.98
2023-03-06T09:28:14.625Z,2.92
2023-03-06T09:31:37.994Z,2.83
2023-03-06T09:35:04.421Z,2.78
2023-03-06T09:38:29.655Z,2.20
2023-03-06T09:41:54.377Z,2.78
2023-03-06T09:45:21.195Z,1.88
2023-03-06T09:48:54.293Z,2.58
2023-03-06T09:52:40.192Z,3.05
2023-03-06T09:56:08.404Z,3.80
2023-03-06T09:59:34.200Z,3.58
2023-03-06T10:03:06.642Z,3.00
2023-03-06T10:06:33.331Z,3.08
2023-03-06T10:10:02.537Z,5.60
2023-03-06T10:13:30.205Z,6.10
2023-03-06T10:16:53.369Z,7.18
2023-03-06T10:20:24.320Z,5.72
2023-03-06T10:23:56.303Z,3.42
2023-03-06T10:27:32.168Z,3.00
2023-03-06T10:31:04.531Z,3.75
2023-03-06T10:34:35.072Z,4.07
2023-03-06T10:38:07.476Z,3.72
2023-03-06T10:41:32.666Z,4.05
2023-03-06T10:45:10.280Z,3.03
2023-03-06T10:48:36.519Z,3.95
2023-03-06T10:52:03.297Z,2.53
2023-03-06T10:55:31.651Z,2.80
2023-03-06T10:59:08.516Z,2.78
2023-03-06T11:02:37.324Z,4.25
2023-03-06T11:06:12.667Z,3.70
2023-03-06T11:09:35.646Z,3.65
2023-03-06T11:13:01.257Z,3.47
2023-03-06T11:16:31.021Z,2.35
2023-03-06T11:20:18.994Z,3.58
2023-03-06T11:23:46.910Z,4.25
2023-03-06T11:27:25.228Z,4.07
2023-03-06T11:30:52.275Z,2.55
2023-03-06T11:34:23.529Z,2.05
2023-03-06T11:37:55.392Z,1.73
2023-03-06T11:41:26.538Z,2.35
2023-03-06T11:45:00.352Z,2.00
2023-03-06T11:48:31.114Z,2.53
2023-03-06T11:51:57.536Z,4.47
2023-03-06T11:55:38.013Z,11.43
2023-03-06T11:59:28.730Z,4.95
2023-03-06T12:03:24.566Z,3.17
2023-03-06T12:06:58.565Z,4.18
2023-03-06T12:10:32.404Z,4.75
2023-03-06T12:14:23.720Z,2.55
2023-03-06T12:18:07.674Z,1.80
2023-03-06T12:21:42.718Z,7.05
2023-03-06T12:25:38.340Z,7.63
2023-03-06T12:29:20.679Z,5.00
2023-03-06T12:32:52.769Z,10.05
2023-03-06T12:36:29.923Z,4.93
2023-03-06T12:40:16.749Z,3.58
2023-03-06T12:44:05.106Z,22.73
2023-03-06T12:47:31.440Z,3.78
2023-03-06T12:50:55.611Z,2.78
2023-03-06T12:54:24.322Z,2.70
2023-03-06T12:57:49.330Z,6.00
2023-03-06T13:01:20.622Z,5.35
2023-03-06T13:05:03.312Z,5.68
2023-03-06T13:08:59.139Z,5.80
2023-03-06T13:12:40.641Z,3.15
2023-03-06T13:16:14.561Z,1.42
2023-03-06T13:19:38.536Z,0.80
2023-03-06T13:23:44.607Z,1.10
2023-03-06T13:27:11.622Z,1.02
2023-03-06T13:30:47.572Z,0.60
2023-03-06T13:34:37.833Z,0.50
2023-03-06T13:38:03.339Z,1.50
2023-03-06T13:41:45.659Z,1.17
2023-03-06T13:45:11.896Z,1.98
2023-03-06T13:48:44.774Z,2.78
2023-03-06T13:52:12.559Z,1.85
2023-03-06T13:55:46.580Z,2.03
2023-03-06T13:59:35.134Z,0.98
2023-03-06T14:03:31.894Z,1.27
2023-03-06T14:07:07.250Z,0.55
2023-03-06T14:10:35.824Z,1.08
2023-03-06T14:14:00.225Z,1.70
2023-03-06T14:17:30.459Z,0.90
2023-03-06T14:20:59.456Z,2.72
2023-03-06T14:24:35.527Z,4.10
2023-03-06T14:28:09.128Z,1.58
2023-03-06T14:31:46.035Z,0.80
2023-03-06T14:40:11.404Z,1.70
2023-03-06T14:51:20.510Z,1.67
2023-03-06T14:54:47.318Z,2.47
2023-03-06T14:58:16.524Z,7.88
2023-03-06T15:01:43.554Z,5.53
2023-03-06T15:05:16.026Z,11.30
2023-03-06T15:08:42.718Z,7.65
2023-03-06T15:12:09.662Z,5.03
2023-03-06T15:15:35.599Z,5.65
2023-03-06T15:19:01.325Z,7.05
2023-03-06T15:22:31.744Z,8.40
2023-03-06T15:26:00.751Z,11.38
2023-03-06T15:29:26.176Z,12.18
2023-03-06T15:32:52.608Z,36.92
2023-03-06T15:36:29.905Z,29.55
2023-03-06T15:40:09.656Z,22.70
2023-03-06T15:43:38.359Z,18.20
2023-03-06T15:47:08.680Z,12.63
2023-03-06T15:50:34.636Z,10.07
2023-03-06T15:54:11.994Z,15.63
2023-03-06T15:57:35.606Z,17.90
2023-03-06T16:01:00.837Z,15.95
2023-03-06T16:04:24.996Z,14.25
2023-03-06T16:07:50.939Z,11.10
2023-03-06T16:11:18.600Z,11.65
2023-03-06T16:14:42.473Z,8.88
2023-03-06T16:22:55.648Z,7.40
2023-03-06T16:29:49.848Z,8.23
2023-03-06T16:33:13.631Z,6.70
2023-03-06T16:36:37.611Z,7.03
2023-03-06T16:40:03.113Z,8.52
2023-03-06T16:43:27.216Z,8.70
2023-03-06T16:46:52.746Z,7.80
2023-03-06T16:50:25.642Z,7.80
2023-03-06T16:53:49.517Z,12.77
2023-03-06T16:57:16.368Z,14.82
2023-03-06T17:00:39.744Z,13.25
2023-03-06T17:04:04.838Z,19.42
2023-03-06T17:07:29.750Z,29.63
2023-03-06T17:10:54.261Z,26.25
2023-03-06T17:14:19.564Z,18.35
2023-03-06T17:17:42.726Z,18.77
2023-03-06T17:21:06.508Z,25.45
2023-03-06T17:24:31.001Z,22.63
2023-03-06T17:27:54.864Z,14.73
2023-03-06T17:31:21.750Z,13.32
2023-03-06T17:34:46.028Z,13.05
2023-03-06T17:38:10.521Z,13.48
2023-03-06T17:41:35.094Z,12.80
2023-03-06T17:44:58.874Z,12.40
2023-03-06T17:48:24.895Z,11.77
2023-03-06T17:51:49.218Z,12.63
2023-03-06T17:55:14.021Z,12.23
2023-03-06T17:58:38.007Z,13.23
2023-03-06T18:02:02.224Z,17.75
2023-03-06T18:05:27.885Z,15.32
2023-03-06T18:08:52.940Z,13.18
2023-03-06T18:12:16.714Z,12.80
2023-03-06T18:15:42.126Z,11.20
2023-03-06T18:19:08.922Z,11.88
2023-03-06T18:22:34.505Z,16.38
2023-03-06T18:26:09.938Z,10.88
2023-03-06T18:29:33.421Z,5.63
2023-03-06T18:32:59.192Z,6.50
2023-03-06T18:36:25.377Z,5.07
2023-03-06T18:39:51.414Z,6.78
2023-03-06T18:43:15.503Z,10.35
2023-03-06T18:46:40.612Z,9.98
2023-03-06T18:50:04.599Z,10.48
2023-03-06T18:53:28.372Z,8.57
2023-03-06T18:56:53.072Z,9.45
2023-03-06T19:00:17.776Z,12.48
2023-03-06T19:03:43.642Z,8.80
2023-03-06T19:07:07.688Z,5.38
2023-03-06T19:10:32.086Z,6.20
2023-03-06T19:13:57.299Z,5.70
2023-03-06T19:17:20.955Z,8.48
2023-03-06T19:20:44.959Z,7.80
2023-03-06T19:24:14.685Z,5.10
2023-03-06T19:27:39.968Z,9.57
2023-03-06T19:31:10.336Z,5.93
2023-03-06T19:34:33.802Z,7.75
2023-03-06T19:37:57.791Z,8.90
2023-03-06T19:41:21.786Z,14.75
2023-03-06T19:44:45.757Z,33.60
2023-03-06T19:48:12.812Z,27.80
2023-03-06T19:51:36.892Z,24.02
2023-03-06T19:55:00.161Z,11.77
2023-03-06T19:58:23.640Z,7.88
2023-03-06T20:01:47.577Z,5.80
2023-03-06T20:05:13.142Z,4.13
2023-03-06T20:08:37.004Z,3.47
2023-03-06T20:12:00.191Z,4.72
2023-03-06T20:15:23.958Z,4.30
2023-03-06T20:18:48.142Z,4.88
2023-03-06T20:22:13.870Z,2.45
2023-03-06T20:25:38.671Z,1.40
2023-03-06T20:29:02.255Z,2.08
2023-03-06T20:32:25.940Z,2.50
2023-03-06T20:35:51.029Z,2.78
2023-03-06T20:39:17.983Z,2.42
2023-03-06T20:42:40.941Z,3.08
2023-03-06T20:46:06.717Z,4.00
2023-03-06T20:49:30.759Z,4.47
2023-03-06T20:52:56.176Z,3.90
2023-03-06T20:56:22.208Z,2.25
2023-03-06T20:59:45.781Z,2.70
2023-03-06T21:03:09.356Z,2.42
2023-03-06T21:06:32.832Z,2.55
2023-03-06T21:09:56.710Z,3.80
2023-03-06T21:13:21.716Z,3.80
2023-03-06T21:16:46.082Z,4.13
2023-03-06T21:20:11.058Z,4.75
2023-03-06T21:23:35.206Z,4.18
2023-03-06T21:26:59.294Z,3.80
2023-03-06T21:30:25.089Z,3.05
2023-03-06T21:33:50.237Z,2.42
2023-03-06T21:37:13.607Z,2.05
2023-03-06T21:40:38.076Z,1.73
2023-03-06T21:44:04.238Z,1.40
2023-03-06T21:47:32.081Z,1.50
2023-03-06T21:50:55.886Z,2.33
2023-03-06T21:54:19.087Z,2.70
2023-03-06T21:57:42.087Z,1.92
2023-03-06T22:01:11.022Z,2.30
2023-03-06T22:04:37.039Z,2.47
2023-03-06T22:08:01.846Z,2.28
2023-03-06T22:11:27.400Z,2.00
2023-03-06T22:14:50.326Z,1.95
2023-03-06T22:18:16.467Z,1.92
2023-03-06T22:21:41.876Z,2.10
2023-03-06T22:25:06.715Z,2.00
2023-03-06T22:28:30.252Z,2.25
2023-03-06T22:31:54.182Z,1.70
2023-03-06T22:35:19.111Z,1.98
2023-03-06T22:38:45.994Z,1.60
2023-03-06T22:42:10.285Z,1.70
2023-03-06T22:45:37.563Z,1.48
2023-03-06T22:49:02.049Z,1.50
2023-03-06T22:52:25.713Z,1.35
2023-03-06T22:55:51.643Z,1.80
2023-03-06T22:59:16.855Z,1.75
2023-03-06T23:02:45.553Z,1.85
2023-03-06T23:06:12.111Z,1.80
2023-03-06T23:09:36.285Z,1.73
2023-03-06T23:13:01.918Z,1.30
2023-03-06T23:16:26.153Z,1.40
2023-03-06T23:19:54.386Z,1.88
2023-03-06T23:23:18.266Z,1.80
2023-03-06T23:26:42.349Z,1.42
2023-03-06T23:30:09.519Z,1.77
2023-03-06T23:33:33.083Z,1.88
2023-03-06T23:36:56.762Z,2.30
2023-03-06T23:40:20.949Z,1.77
2023-03-06T23:43:46.983Z,1.83
2023-03-06T23:47:12.179Z,1.90
2023-03-06T23:50:37.817Z,1.85
2023-03-06T23:54:02.419Z,2.22
2023-03-06T23:57:26.025Z,1.33
